HEGS weather

Jiyanklis Air Base
Jiyanklis, Beheira Governorate, Egypt

Public forecast

Using degrees Celsius for public forecast. Weather courtesy of forecast.io.

Closest aviation weather report (METAR) to Jiyanklis Air Base

Closest report is El Nouzha Airport, 25.2 nm (46.6 km) NNW. Retrieved 2019/10/22 16:00 UTC (11 minutes ago):

HEAX 221600Z 35008KT 9999 SCT020 25/18 Q1011 NOSIG

Closest aviation forecast (TAF) to Jiyanklis Air Base

Closest forecast is El Nouzha Airport, 25.2 nm (46.6 km) NNW. Retrieved 2019/10/22 12:40 UTC (4 hours ago):

TAF HEAX 221100Z 2212/2318 33010KT 9999 SCT020 TEMPO 2214/2316 7000 -RA BKN020